Time;durP1;ratioP1;P1;durP2;ratioP2;P2;SDS_P1;SDS_P2;PMS_P1;PMS_P2;Temp;Humidity;BMP_temperature;BMP_pressure;BME280_temperature;BME280_humidity;BME280_pressure;Samples;Min_cycle;Max_cycle;Signal;HPM_P1;HPM_P2
2023/09/17 00:00:04;;;;;;;8.80;8.00;;;19.00;99.90;;;;;;5015422;28;20968;-59
2023/09/17 00:02:32;;;;;;;9.20;8.07;;;19.00;99.90;;;;;;5015776;28;20513;-59
2023/09/17 00:05:00;;;;;;;9.03;8.17;;;19.00;99.90;;;;;;5015655;28;20471;-59
2023/09/17 00:07:28;;;;;;;10.40;8.40;;;19.00;1.00;;;;;;5014659;28;20593;-59
2023/09/17 00:09:56;;;;;;;8.40;7.50;;;18.90;1.00;;;;;;5015217;28;20468;-59
2023/09/17 00:12:23;;;;;;;9.33;8.43;;;18.90;1.00;;;;;;5015472;28;20533;-60
2023/09/17 00:14:51;;;;;;;9.77;8.77;;;18.90;1.00;;;;;;5015520;28;20827;-59
2023/09/17 00:17:18;;;;;;;10.03;8.43;;;18.80;99.90;;;;;;5015647;28;20869;-59
2023/09/17 00:19:46;;;;;;;9.53;8.73;;;18.70;1.00;;;;;;5015271;28;20460;-59
2023/09/17 00:22:14;;;;;;;9.73;8.93;;;18.70;1.00;;;;;;5015183;28;20461;-59
2023/09/17 00:24:43;;;;;;;9.77;8.87;;;18.70;1.00;;;;;;5015542;28;20570;-59
2023/09/17 00:27:10;;;;;;;9.07;8.17;;;18.70;99.90;;;;;;5015248;28;20498;-59
2023/09/17 00:29:38;;;;;;;9.93;9.03;;;18.60;99.90;;;;;;5015064;28;20805;-59
2023/09/17 00:32:05;;;;;;;9.03;8.23;;;18.50;1.00;;;;;;5014814;28;20467;-59
2023/09/17 00:34:33;;;;;;;10.53;9.43;;;18.60;22.20;;;;;;5015059;28;20467;-59
2023/09/17 00:37:00;;;;;;;9.30;7.90;;;18.60;1.00;;;;;;5015518;28;20460;-59
2023/09/17 00:39:28;;;;;;;8.87;7.80;;;18.70;1.00;;;;;;5014755;28;20469;-59
2023/09/17 00:41:56;;;;;;;9.20;8.50;;;18.70;1.00;;;;;;5015070;28;20471;-59
2023/09/17 00:44:24;;;;;;;8.70;7.90;;;18.80;99.90;;;;;;5015412;28;20503;-59
2023/09/17 00:46:52;;;;;;;8.20;7.40;;;18.70;99.90;;;;;;5015273;28;20495;-59
2023/09/17 00:49:19;;;;;;;9.90;8.90;;;18.70;99.90;;;;;;5014743;28;20465;-59
2023/09/17 00:51:47;;;;;;;8.77;7.97;;;18.80;99.90;;;;;;5015160;28;20566;-59
2023/09/17 00:54:15;;;;;;;9.90;9.00;;;18.80;99.90;;;;;;5014997;28;20525;-59
2023/09/17 00:56:42;;;;;;;9.10;8.20;;;18.80;83.00;;;;;;5015196;28;20445;-59
2023/09/17 00:59:11;;;;;;;8.90;7.97;;;18.70;25.70;;;;;;5015095;28;20459;-59
2023/09/17 01:01:39;;;;;;;9.67;7.63;;;18.80;50.50;;;;;;5014003;28;20511;-59
2023/09/17 01:04:07;;;;;;;10.40;8.00;;;18.70;98.20;;;;;;5014991;28;20507;-61
2023/09/17 01:06:36;;;;;;;9.07;8.17;;;18.80;89.20;;;;;;5014671;28;20468;-62
2023/09/17 01:09:07;;;;;;;8.07;7.40;;;18.70;49.10;;;;;;5014730;28;20543;-62
2023/09/17 01:11:35;;;;;;;9.07;8.23;;;18.70;55.60;;;;;;5014878;28;20752;-62
2023/09/17 01:14:15;;;;;;;8.07;7.37;;;18.80;24.70;;;;;;5014533;28;20464;-61
2023/09/17 01:16:46;;;;;;;8.87;7.97;;;18.60;1.00;;;;;;5015363;28;20460;-62
2023/09/17 01:19:17;;;;;;;8.70;7.83;;;18.60;29.80;;;;;;5018852;28;20494;-61
2023/09/17 01:21:52;;;;;;;9.27;8.40;;;18.50;99.90;;;;;;5018720;28;20496;-61
2023/09/17 01:24:25;;;;;;;9.20;8.40;;;18.60;1.00;;;;;;5018631;28;20489;-62
2023/09/17 01:27:01;;;;;;;9.10;8.30;;;18.70;1.00;;;;;;5019143;28;20492;-62
2023/09/17 01:29:32;;;;;;;8.93;8.07;;;18.80;99.90;;;;;;5018105;28;20460;-62
2023/09/17 01:32:00;;;;;;;8.37;7.67;;;18.80;99.90;;;;;;5018168;28;20466;-61
2023/09/17 01:34:28;;;;;;;10.03;8.83;;;18.90;89.30;;;;;;5018445;28;20558;-62
2023/09/17 01:37:02;;;;;;;9.03;8.13;;;18.90;83.50;;;;;;5018578;28;20554;-62
2023/09/17 01:39:34;;;;;;;7.97;7.23;;;18.90;99.90;;;;;;5018777;28;20494;-62
2023/09/17 01:42:05;;;;;;;9.47;8.50;;;18.90;99.90;;;;;;5018396;28;20814;-62
2023/09/17 01:44:33;;;;;;;9.60;8.70;;;19.00;99.90;;;;;;5018758;28;20538;-62
2023/09/17 01:47:03;;;;;;;10.00;8.93;;;18.90;99.90;;;;;;5018950;28;20498;-62
2023/09/17 01:49:33;;;;;;;9.63;8.73;;;19.00;38.70;;;;;;5018195;28;20468;-62
2023/09/17 01:52:00;;;;;;;9.37;8.57;;;19.00;1.00;;;;;;5018477;28;20812;-62
2023/09/17 01:54:29;;;;;;;9.70;8.80;;;19.00;99.90;;;;;;5019013;28;20760;-62
2023/09/17 01:56:56;;;;;;;9.53;8.53;;;19.00;99.90;;;;;;5018756;28;20464;-62
2023/09/17 01:59:26;;;;;;;8.33;7.60;;;19.00;99.90;;;;;;5018462;28;20760;-63
2023/09/17 02:01:53;;;;;;;9.10;8.00;;;18.90;99.90;;;;;;5017831;28;20816;-62
2023/09/17 02:04:21;;;;;;;9.00;8.10;;;18.90;99.90;;;;;;5018173;28;20467;-62
2023/09/17 02:06:53;;;;;;;8.87;8.10;;;18.80;1.00;;;;;;5018764;28;20554;-63
2023/09/17 02:09:21;;;;;;;9.20;8.30;;;18.90;99.90;;;;;;5017965;28;20542;-62
2023/09/17 02:11:48;;;;;;;8.97;8.07;;;18.90;99.90;;;;;;5018120;28;20464;-62
2023/09/17 02:14:16;;;;;;;8.70;7.83;;;18.90;1.00;;;;;;5018743;28;20471;-62
2023/09/17 02:16:45;;;;;;;8.47;7.73;;;18.80;1.00;;;;;;5018505;28;20945;-62
2023/09/17 02:19:12;;;;;;;8.67;7.97;;;18.80;1.00;;;;;;5018141;28;20652;-62
2023/09/17 02:21:40;;;;;;;8.93;8.10;;;18.70;99.90;;;;;;5017457;28;20459;-62
2023/09/17 02:24:10;;;;;;;9.50;8.60;;;18.80;80.10;;;;;;5017980;28;20521;-62
2023/09/17 02:26:37;;;;;;;10.20;9.33;;;18.80;99.90;;;;;;5017809;28;20465;-62
2023/09/17 02:29:05;;;;;;;8.70;7.90;;;18.80;1.00;;;;;;5016804;28;20506;-63
2023/09/17 02:31:32;;;;;;;9.63;8.67;;;18.80;1.00;;;;;;5017273;28;20507;-62
2023/09/17 02:34:01;;;;;;;8.97;8.07;;;18.80;1.00;;;;;;5017222;28;20476;-62
2023/09/17 02:36:28;;;;;;;8.80;8.00;;;18.80;1.00;;;;;;5017260;28;20870;-62
2023/09/17 02:38:56;;;;;;;9.10;7.93;;;18.80;1.00;;;;;;5017171;28;20454;-62
2023/09/17 02:41:23;;;;;;;9.70;8.80;;;18.80;1.00;;;;;;5017305;28;20468;-62
2023/09/17 02:43:51;;;;;;;9.93;9.10;;;18.80;1.00;;;;;;5017648;28;20460;-62
2023/09/17 02:46:18;;;;;;;8.37;7.57;;;18.80;1.00;;;;;;5017761;28;20456;-62
2023/09/17 02:48:47;;;;;;;9.13;8.33;;;18.80;1.00;;;;;;5017657;28;20834;-61
2023/09/17 02:51:16;;;;;;;9.47;8.57;;;18.80;99.90;;;;;;5016720;28;20471;-62
2023/09/17 02:53:43;;;;;;;9.90;9.00;;;18.80;99.90;;;;;;5017388;28;20483;-62
2023/09/17 02:56:10;;;;;;;8.67;7.90;;;18.80;99.90;;;;;;5017424;28;20897;-62
2023/09/17 02:58:38;;;;;;;10.93;8.60;;;18.90;99.90;;;;;;5017180;28;20456;-62
2023/09/17 03:01:17;;;;;;;10.00;9.00;;;18.90;99.90;;;;;;5017101;28;20495;-62
2023/09/17 03:03:45;;;;;;;10.20;9.13;;;18.90;30.30;;;;;;5017123;28;20471;-63
2023/09/17 03:06:13;;;;;;;10.90;10.00;;;18.90;1.00;;;;;;5020151;28;20467;-62
2023/09/17 03:08:45;;;;;;;11.93;10.83;;;18.90;1.00;;;;;;5035821;28;20559;-63
2023/09/17 03:11:16;;;;;;;11.57;10.47;;;18.90;99.90;;;;;;5036015;28;20796;-61
2023/09/17 03:13:46;;;;;;;11.97;10.97;;;18.90;1.00;;;;;;5035426;28;20438;-62
2023/09/17 03:16:15;;;;;;;12.93;11.63;;;18.90;1.00;;;;;;5036071;28;20463;-62
2023/09/17 03:18:42;;;;;;;13.30;12.07;;;18.90;99.90;;;;;;5036309;28;20459;-62
2023/09/17 03:21:10;;;;;;;13.83;12.20;;;18.90;1.00;;;;;;5036061;28;20471;-62
2023/09/17 03:23:38;;;;;;;14.40;13.10;;;18.90;99.90;;;;;;5035800;28;20459;-63
2023/09/17 03:26:09;;;;;;;13.80;12.40;;;18.90;99.90;;;;;;5035197;28;20495;-63
2023/09/17 03:28:37;;;;;;;14.50;13.13;;;18.90;1.00;;;;;;5035461;28;20597;-63
2023/09/17 03:31:04;;;;;;;15.17;13.60;;;18.90;37.70;;;;;;5035351;28;20470;-63
2023/09/17 03:33:31;;;;;;;13.27;11.80;;;18.90;99.90;;;;;;5035628;28;20876;-63
2023/09/17 03:35:59;;;;;;;12.70;11.60;;;18.90;1.00;;;;;;5035576;28;20835;-62
2023/09/17 03:38:27;;;;;;;12.77;11.23;;;18.90;1.00;;;;;;5034967;28;20461;-62
2023/09/17 03:40:54;;;;;;;13.97;12.67;;;18.90;99.90;;;;;;5033718;28;20459;-62
2023/09/17 03:43:23;;;;;;;12.53;11.20;;;18.80;99.90;;;;;;5035611;28;20755;-62
2023/09/17 03:45:51;;;;;;;12.83;11.63;;;18.70;1.00;;;;;;5035469;28;20971;-61
2023/09/17 03:48:18;;;;;;;11.10;10.10;;;18.80;99.90;;;;;;5035612;28;20513;-62
2023/09/17 03:50:46;;;;;;;11.70;10.60;;;18.80;99.90;;;;;;5035190;28;20456;-62
2023/09/17 03:53:13;;;;;;;11.10;10.20;;;18.80;77.10;;;;;;5035048;28;20434;-63
2023/09/17 03:55:41;;;;;;;11.97;10.90;;;18.80;1.00;;;;;;5035155;28;20558;-62
2023/09/17 03:58:09;;;;;;;12.20;11.07;;;18.80;1.00;;;;;;5034931;28;20547;-62
2023/09/17 04:00:38;;;;;;;11.23;10.23;;;18.80;1.00;;;;;;5034516;28;21029;-62
2023/09/17 04:03:08;;;;;;;11.90;10.80;;;18.80;1.00;;;;;;5034145;28;20491;-62
2023/09/17 04:05:36;;;;;;;11.57;10.47;;;18.80;41.60;;;;;;5035194;28;20463;-62
2023/09/17 04:08:03;;;;;;;11.90;10.73;;;18.80;99.90;;;;;;5035201;28;20599;-62
2023/09/17 04:10:31;;;;;;;11.07;10.10;;;18.80;99.90;;;;;;5034588;28;20554;-62
2023/09/17 04:12:58;;;;;;;15.23;11.83;;;18.80;99.90;;;;;;5034869;28;20459;-61
2023/09/17 04:15:25;;;;;;;12.73;11.40;;;18.90;99.90;;;;;;5035223;28;20516;-63
2023/09/17 04:17:54;;;;;;;13.03;11.80;;;18.80;99.90;;;;;;5037574;28;20464;-72
2023/09/17 04:20:24;;;;;;;12.20;10.93;;;18.80;99.90;;;;;;5034456;28;20470;-69
2023/09/17 04:22:52;;;;;;;12.60;11.50;;;18.80;1.00;;;;;;5034543;28;20478;-68
2023/09/17 04:25:20;;;;;;;13.47;11.33;;;18.70;1.00;;;;;;5035090;28;20494;-66
2023/09/17 04:27:48;;;;;;;11.27;10.20;;;18.70;1.00;;;;;;5034214;28;20850;-67
2023/09/17 04:30:17;;;;;;;12.30;11.20;;;18.80;1.00;;;;;;5034732;28;20751;-66
2023/09/17 04:32:46;;;;;;;11.70;10.60;;;18.70;1.00;;;;;;5034367;28;20799;-66
2023/09/17 04:35:17;;;;;;;11.60;10.50;;;18.70;37.10;;;;;;5034674;28;20483;-65
2023/09/17 04:37:45;;;;;;;11.83;10.73;;;18.70;99.20;;;;;;5034950;28;20757;-65
2023/09/17 04:40:13;;;;;;;11.17;10.17;;;18.70;99.90;;;;;;5034548;28;20449;-65
2023/09/17 04:42:43;;;;;;;10.70;9.80;;;18.70;99.90;;;;;;5034325;28;20830;-62
2023/09/17 04:45:11;;;;;;;11.63;10.60;;;18.70;99.90;;;;;;5034293;28;20469;-63
2023/09/17 04:47:40;;;;;;;12.10;11.00;;;18.70;99.90;;;;;;5034647;28;20437;-63
2023/09/17 04:50:09;;;;;;;11.37;10.37;;;18.70;99.90;;;;;;5034403;28;20546;-63
2023/09/17 04:52:38;;;;;;;12.17;11.10;;;18.70;99.90;;;;;;5033542;28;20459;-62
2023/09/17 04:55:06;;;;;;;11.10;10.20;;;18.60;99.90;;;;;;5034183;28;20466;-62
2023/09/17 04:57:33;;;;;;;12.23;11.13;;;18.60;99.90;;;;;;5033832;28;20469;-62
2023/09/17 05:00:07;;;;;;;12.67;11.57;;;18.60;99.90;;;;;;5033998;28;20565;-62
2023/09/17 05:02:35;;;;;;;12.20;11.10;;;18.60;99.90;;;;;;5033257;28;20892;-62
2023/09/17 05:05:03;;;;;;;12.73;11.33;;;18.60;99.90;;;;;;5033687;28;20463;-62
2023/09/17 05:07:30;;;;;;;14.73;12.07;;;18.60;99.90;;;;;;5033990;28;20459;-63
2023/09/17 05:09:58;;;;;;;13.47;12.33;;;18.60;99.90;;;;;;5033975;28;20455;-63
2023/09/17 05:12:26;;;;;;;10.67;9.67;;;18.60;99.90;;;;;;5033607;28;20459;-62
2023/09/17 05:14:53;;;;;;;11.30;10.20;;;18.60;99.90;;;;;;5034054;28;20494;-63
2023/09/17 05:17:20;;;;;;;12.70;11.20;;;18.60;99.90;;;;;;5033707;28;20459;-63
2023/09/17 05:19:48;;;;;;;12.10;11.10;;;18.60;99.90;;;;;;5033223;28;20512;-63
2023/09/17 05:22:15;;;;;;;13.00;11.63;;;18.60;99.90;;;;;;5034072;28;20558;-63
2023/09/17 05:24:42;;;;;;;12.90;11.70;;;18.70;99.90;;;;;;5033542;28;20481;-63
2023/09/17 05:27:11;;;;;;;11.63;10.53;;;18.60;99.90;;;;;;5033135;28;20462;-65
2023/09/17 05:29:38;;;;;;;11.90;10.70;;;18.60;99.90;;;;;;5033779;28;20589;-65
2023/09/17 05:32:06;;;;;;;11.73;10.60;;;18.60;99.90;;;;;;5033605;28;20477;-67
2023/09/17 05:34:33;;;;;;;12.07;10.77;;;18.60;99.90;;;;;;5033266;28;20498;-68
2023/09/17 05:37:00;;;;;;;13.03;11.60;;;18.60;99.90;;;;;;5033617;28;20545;-68
2023/09/17 05:39:27;;;;;;;12.70;11.60;;;18.60;99.90;;;;;;5033909;28;20455;-67
2023/09/17 05:41:55;;;;;;;11.50;10.37;;;18.60;99.90;;;;;;5034075;28;20463;-66
2023/09/17 05:44:24;;;;;;;11.03;10.03;;;18.60;99.90;;;;;;5033715;28;20758;-66
2023/09/17 05:46:52;;;;;;;10.90;9.80;;;18.60;99.90;;;;;;5033639;28;20463;-65
2023/09/17 05:49:19;;;;;;;12.63;11.47;;;18.60;99.90;;;;;;5033306;28;20594;-65
2023/09/17 05:51:46;;;;;;;10.43;9.43;;;18.60;99.90;;;;;;5032954;28;20459;-65
2023/09/17 05:54:13;;;;;;;12.20;10.00;;;18.70;99.90;;;;;;5034013;28;20469;-66
2023/09/17 05:56:41;;;;;;;11.43;10.43;;;18.70;99.90;;;;;;5033361;28;20463;-65
2023/09/17 05:59:08;;;;;;;12.83;11.03;;;18.70;99.90;;;;;;5033327;28;20512;-65
2023/09/17 06:01:37;;;;;;;12.93;11.70;;;18.70;99.90;;;;;;5033223;28;20490;-65
2023/09/17 06:04:05;;;;;;;13.20;11.73;;;18.70;99.90;;;;;;5033805;28;20967;-65
2023/09/17 06:06:32;;;;;;;12.73;11.43;;;18.80;99.90;;;;;;5036731;28;20459;-66
2023/09/17 06:09:00;;;;;;;11.03;10.00;;;18.90;99.90;;;;;;5036624;28;20977;-66
2023/09/17 06:11:27;;;;;;;11.10;10.10;;;18.90;99.90;;;;;;5036822;28;20926;-65
2023/09/17 06:13:54;;;;;;;11.07;10.10;;;19.00;99.90;;;;;;5036759;28;20970;-65
2023/09/17 06:16:21;;;;;;;10.10;9.20;;;19.10;99.90;;;;;;5036419;28;20471;-65
2023/09/17 06:18:50;;;;;;;9.70;8.80;;;19.20;99.90;;;;;;5036494;28;20485;-65
2023/09/17 06:21:18;;;;;;;9.50;8.60;;;19.30;99.90;;;;;;5036641;28;20463;-66
2023/09/17 06:23:45;;;;;;;9.90;9.10;;;19.40;99.90;;;;;;5036807;28;20840;-65
2023/09/17 06:26:12;;;;;;;9.60;8.80;;;19.50;99.90;;;;;;5036701;28;20823;-66
2023/09/17 06:28:39;;;;;;;9.90;9.10;;;19.50;14.90;;;;;;5036342;28;20501;-65
2023/09/17 06:31:08;;;;;;;10.70;8.70;;;19.50;1.00;;;;;;5036615;28;20502;-66
2023/09/17 06:33:36;;;;;;;9.27;8.47;;;19.60;99.90;;;;;;5036414;28;20919;-66
2023/09/17 06:36:05;;;;;;;9.93;8.93;;;19.60;1.00;;;;;;5036525;28;20793;-66
2023/09/17 06:38:32;;;;;;;9.30;8.47;;;19.60;99.90;;;;;;5039306;27;20497;-66
2023/09/17 06:40:59;;;;;;;9.60;8.70;;;19.70;99.90;;;;;;5034633;28;20817;-66
2023/09/17 06:43:27;;;;;;;9.23;8.30;;;19.80;99.90;;;;;;5035142;28;20797;-65
2023/09/17 06:45:54;;;;;;;9.80;8.10;;;19.80;99.90;;;;;;5035760;28;20550;-66
2023/09/17 06:48:21;;;;;;;10.47;7.97;;;20.00;99.90;;;;;;5035367;28;20940;-66
2023/09/17 06:50:48;;;;;;;8.50;7.70;;;20.20;99.90;;;;;;5034592;28;20471;-66
2023/09/17 06:53:17;;;;;;;9.53;8.63;;;20.40;1.00;;;;;;5034968;28;20455;-66
2023/09/17 06:55:44;;;;;;;8.33;7.63;;;20.60;1.00;;;;;;5035703;28;20462;-66
2023/09/17 06:58:12;;;;;;;8.27;7.10;;;20.70;1.00;;;;;;5032817;28;20829;-66
2023/09/17 07:00:39;;;;;;;7.70;6.90;;;20.80;22.80;;;;;;5034662;28;20574;-65
2023/09/17 07:03:06;;;;;;;7.60;6.60;;;21.00;99.90;;;;;;5034285;28;20459;-65
2023/09/17 07:05:34;;;;;;;7.70;6.90;;;21.10;99.90;;;;;;5035216;28;20453;-65
2023/09/17 07:08:01;;;;;;;8.87;7.60;;;21.10;1.00;;;;;;5035482;28;20814;-66
2023/09/17 07:10:31;;;;;;;7.83;7.13;;;21.10;1.00;;;;;;5034844;28;20491;-65
2023/09/17 07:12:58;;;;;;;7.87;7.07;;;21.10;1.00;;;;;;5035428;28;20947;-65
2023/09/17 07:15:26;;;;;;;6.97;6.37;;;21.10;28.40;;;;;;5034890;28;20771;-66
2023/09/17 07:17:54;;;;;;;9.03;8.17;;;21.10;1.00;;;;;;5035194;28;20459;-65
2023/09/17 07:20:21;;;;;;;7.33;6.63;;;21.10;99.90;;;;;;5035122;28;20466;-65
2023/09/17 07:22:49;;;;;;;7.67;6.97;;;21.20;1.00;;;;;;5035460;28;20430;-65
2023/09/17 07:25:16;;;;;;;8.77;7.70;;;21.50;1.00;;;;;;5035902;28;20879;-65
2023/09/17 07:27:45;;;;;;;8.03;7.17;;;21.70;99.90;;;;;;5035707;28;20495;-65
2023/09/17 07:30:13;;;;;;;8.07;7.40;;;22.00;1.00;;;;;;5035588;28;20538;-64
2023/09/17 07:32:40;;;;;;;7.07;6.47;;;22.30;99.90;;;;;;5035201;28;20609;-63
2023/09/17 07:35:08;;;;;;;7.33;6.73;;;22.50;99.90;;;;;;5035332;28;20497;-63
2023/09/17 07:37:35;;;;;;;7.03;6.43;;;22.80;1.00;;;;;;5035582;28;20477;-66
2023/09/17 07:40:05;;;;;;;7.80;7.20;;;22.80;1.00;;;;;;5035727;28;20495;-63
2023/09/17 07:42:33;;;;;;;8.07;6.00;;;22.80;71.40;;;;;;5035250;28;20728;-62
2023/09/17 07:45:02;;;;;;;14.80;6.67;;;22.70;88.60;;;;;;5035292;28;20498;-63
2023/09/17 07:47:31;;;;;;;7.47;6.77;;;22.50;1.00;;;;;;5035603;28;20503;-63
2023/09/17 07:49:59;;;;;;;7.37;6.60;;;22.50;99.90;;;;;;5034906;28;20536;-63
2023/09/17 07:52:26;;;;;;;8.73;6.87;;;22.50;1.00;;;;;;5034780;28;20511;-63
2023/09/17 07:54:54;;;;;;;6.90;6.30;;;22.70;1.00;;;;;;5045207;27;20665;-62
2023/09/17 07:57:21;;;;;;;7.20;6.50;;;23.10;1.00;;;;;;5033738;28;20459;-63
2023/09/17 07:59:49;;;;;;;9.07;6.40;;;23.30;99.90;;;;;;5034023;28;20422;-62
2023/09/17 08:02:18;;;;;;;6.23;5.73;;;23.30;99.90;;;;;;5033252;28;20498;-61
2023/09/17 08:04:46;;;;;;;6.63;6.03;;;23.40;99.90;;;;;;5033431;28;20506;-62
2023/09/17 08:07:13;;;;;;;6.73;6.03;;;23.50;99.90;;;;;;5034414;28;20487;-61
2023/09/17 08:09:40;;;;;;;8.30;6.57;;;23.70;99.90;;;;;;5033852;28;20535;-61
2023/09/17 08:12:09;;;;;;;7.13;6.43;;;23.80;99.90;;;;;;5033463;28;20462;-61
2023/09/17 08:14:46;;;;;;;7.07;5.70;;;23.90;99.90;;;;;;5033224;28;20463;-62
2023/09/17 08:17:13;;;;;;;6.80;6.20;;;24.00;99.90;;;;;;5032897;28;20475;-61
2023/09/17 08:19:42;;;;;;;6.73;6.13;;;23.90;91.10;;;;;;5028714;27;20467;-61
2023/09/17 08:22:09;;;;;;;7.80;5.67;;;23.80;39.10;;;;;;5019142;28;20455;-61
2023/09/17 08:24:37;;;;;;;5.80;5.20;;;23.90;99.90;;;;;;5034027;28;20459;-61
2023/09/17 08:27:05;;;;;;;8.97;5.50;;;24.00;2.00;;;;;;5033384;28;20550;-61
2023/09/17 08:29:33;;;;;;;6.33;5.73;;;24.20;97.70;;;;;;5030649;28;20491;-61
2023/09/17 08:32:01;;;;;;;6.80;6.10;;;24.50;5.80;;;;;;5034344;28;20463;-61
2023/09/17 08:34:28;;;;;;;7.60;6.17;;;24.50;1.00;;;;;;5033807;28;20558;-60
2023/09/17 08:36:57;;;;;;;6.33;5.80;;;24.70;1.00;;;;;;5034199;28;20460;-61
2023/09/17 08:39:25;;;;;;;5.93;5.43;;;24.80;1.00;;;;;;5032913;28;20462;-61
2023/09/17 08:41:53;;;;;;;5.77;5.20;;;24.80;1.00;;;;;;5034352;28;20837;-60
2023/09/17 08:44:21;;;;;;;6.07;5.40;;;24.80;1.00;;;;;;5033287;28;20804;-61
2023/09/17 08:46:52;;;;;;;7.40;6.17;;;24.90;1.00;;;;;;5033288;28;20466;-61
2023/09/17 08:49:19;;;;;;;6.67;5.93;;;25.10;1.00;;;;;;5034144;28;20540;-61
2023/09/17 08:51:49;;;;;;;6.50;5.63;;;25.30;1.00;;;;;;5034835;28;20789;-61
2023/09/17 08:54:26;;;;;;;5.33;4.83;;;25.50;99.90;;;;;;5033688;28;20452;-60
2023/09/17 08:56:55;;;;;;;6.13;5.50;;;25.60;99.90;;;;;;5033641;28;20873;-61
2023/09/17 08:59:27;;;;;;;5.57;5.07;;;25.90;1.00;;;;;;5031013;28;20562;-61
2023/09/17 09:01:56;;;;;;;5.90;5.37;;;26.10;99.90;;;;;;5023710;28;20979;-61
2023/09/17 09:04:25;;;;;;;6.27;5.77;;;26.10;99.90;;;;;;5034208;28;20566;-61
2023/09/17 09:06:55;;;;;;;6.47;5.40;;;26.10;99.90;;;;;;5033954;28;20448;-60
2023/09/17 09:09:24;;;;;;;4.87;4.47;;;26.10;99.90;;;;;;5033903;28;20530;-61
2023/09/17 09:11:52;;;;;;;6.27;5.30;;;26.20;99.90;;;;;;5033734;28;20455;-61
2023/09/17 09:14:20;;;;;;;6.10;5.60;;;26.20;16.70;;;;;;5033519;28;21093;-61
2023/09/17 09:16:49;;;;;;;5.50;5.10;;;26.30;99.90;;;;;;5034359;28;20553;-60
2023/09/17 09:19:17;;;;;;;6.80;4.97;;;26.50;35.20;;;;;;5033903;28;20919;-61
2023/09/17 09:21:45;;;;;;;5.30;4.90;;;26.80;1.00;;;;;;5033544;28;20468;-61
2023/09/17 09:24:12;;;;;;;5.77;5.17;;;26.90;1.00;;;;;;5033623;28;20483;-62
2023/09/17 09:26:41;;;;;;;5.77;5.27;;;27.00;1.00;;;;;;5033795;28;20455;-61
2023/09/17 09:29:09;;;;;;;6.20;5.70;;;27.20;1.00;;;;;;5032907;28;20483;-61
2023/09/17 09:31:37;;;;;;;6.47;4.93;;;27.40;1.00;;;;;;5033433;28;20451;-62
2023/09/17 09:34:07;;;;;;;5.50;4.80;;;27.80;1.00;;;;;;5030794;28;20495;-62
2023/09/17 09:36:36;;;;;;;5.10;4.70;;;28.10;1.00;;;;;;5033037;28;20494;-62
2023/09/17 09:39:04;;;;;;;5.30;4.87;;;28.20;1.00;;;;;;5038797;27;20538;-62
2023/09/17 09:41:33;;;;;;;6.23;4.73;;;27.80;99.90;;;;;;5037085;28;20503;-61
2023/09/17 09:44:03;;;;;;;4.70;4.30;;;27.40;1.00;;;;;;5036001;28;20894;-62
2023/09/17 09:46:33;;;;;;;5.00;4.57;;;27.10;99.90;;;;;;5035057;28;20512;-61
2023/09/17 09:49:02;;;;;;;5.37;4.90;;;27.00;1.00;;;;;;5034962;28;20504;-62
2023/09/17 09:51:31;;;;;;;5.17;4.77;;;26.80;99.90;;;;;;5035688;28;20691;-62
2023/09/17 09:53:58;;;;;;;7.10;4.20;;;27.00;1.00;;;;;;5035943;28;20892;-63
2023/09/17 09:56:27;;;;;;;4.37;4.07;;;27.70;1.00;;;;;;5035596;28;20821;-61
2023/09/17 09:58:56;;;;;;;6.43;4.70;;;28.00;99.90;;;;;;5034476;28;20467;-62
2023/09/17 10:01:26;;;;;;;5.40;4.90;;;28.30;99.90;;;;;;5033574;28;20532;-62
2023/09/17 10:03:58;;;;;;;5.40;4.90;;;28.60;99.90;;;;;;5034488;28;20467;-63
2023/09/17 10:06:30;;;;;;;5.23;4.57;;;28.50;99.90;;;;;;5034839;28;20920;-62
2023/09/17 10:08:58;;;;;;;4.70;4.30;;;28.40;99.90;;;;;;5034794;28;20820;-62
2023/09/17 10:11:27;;;;;;;5.53;4.83;;;28.50;99.90;;;;;;5033931;28;20543;-62
2023/09/17 10:13:55;;;;;;;5.13;4.20;;;28.90;99.90;;;;;;5035542;28;20887;-62
2023/09/17 10:16:26;;;;;;;5.30;4.80;;;29.40;99.90;;;;;;5035086;28;20540;-63
2023/09/17 10:18:54;;;;;;;6.27;4.60;;;29.30;99.90;;;;;;5035493;28;20455;-63
2023/09/17 10:21:23;;;;;;;5.57;5.00;;;29.30;99.90;;;;;;5036556;28;20482;-62
2023/09/17 10:23:52;;;;;;;4.83;4.43;;;29.40;99.90;;;;;;5037118;28;20462;-62
2023/09/17 10:26:22;;;;;;;4.97;4.57;;;29.50;99.90;;;;;;5036787;28;20459;-62
2023/09/17 10:28:51;;;;;;;4.70;4.30;;;29.60;99.90;;;;;;5036841;28;20893;-63
2023/09/17 10:31:20;;;;;;;4.90;4.40;;;29.60;95.30;;;;;;5035685;28;20943;-62
2023/09/17 10:33:50;;;;;;;5.20;4.77;;;29.80;99.90;;;;;;5036088;28;20459;-61
2023/09/17 10:36:18;;;;;;;5.80;5.30;;;30.10;99.90;;;;;;5033052;28;20471;-62
2023/09/17 10:38:47;;;;;;;5.90;5.40;;;30.30;35.80;;;;;;5032762;28;20472;-62
2023/09/17 10:41:16;;;;;;;5.20;4.80;;;30.30;36.00;;;;;;5036228;28;20974;-62
2023/09/17 10:43:45;;;;;;;6.87;4.33;;;30.20;18.90;;;;;;5028998;28;20945;-62
2023/09/17 10:46:14;;;;;;;5.43;4.97;;;30.30;21.40;;;;;;5032597;28;20832;-62
2023/09/17 10:48:43;;;;;;;5.83;4.30;;;30.30;1.00;;;;;;5036354;28;20499;-62
2023/09/17 10:51:12;;;;;;;4.73;4.20;;;29.90;1.00;;;;;;5033697;28;20491;-61
2023/09/17 10:53:42;;;;;;;5.40;5.00;;;29.70;1.00;;;;;;5037731;28;20448;-62
2023/09/17 10:56:11;;;;;;;4.83;4.43;;;29.70;1.00;;;;;;5032966;28;20520;-61
2023/09/17 10:58:41;;;;;;;5.53;5.13;;;29.60;1.00;;;;;;5035665;28;20559;-61
2023/09/17 11:01:11;;;;;;;4.50;4.07;;;29.50;1.00;;;;;;5034761;28;20487;-61
2023/09/17 11:03:44;;;;;;;4.90;4.50;;;29.80;1.00;;;;;;5030597;28;20499;-58
2023/09/17 11:06:23;;;;;;;5.77;5.17;;;29.90;1.00;;;;;;5032668;28;20835;-61
2023/09/17 11:08:53;;;;;;;4.40;4.03;;;30.40;1.00;;;;;;5032249;28;20565;-61
2023/09/17 11:11:24;;;;;;;5.30;4.90;;;30.60;1.00;;;;;;5031817;28;20792;-61
2023/09/17 11:13:54;;;;;;;5.23;4.83;;;30.30;1.00;;;;;;5024961;28;20451;-61
2023/09/17 11:16:24;;;;;;;4.60;4.20;;;29.80;1.00;;;;;;5034700;28;20537;-60
2023/09/17 11:19:09;;;;;;;5.30;4.90;;;29.30;1.00;;;;;;5022447;28;20482;-60
2023/09/17 11:21:39;;;;;;;5.17;4.77;;;28.90;1.00;;;;;;5024550;28;20448;-61
2023/09/17 11:24:10;;;;;;;6.60;4.73;;;28.70;1.00;;;;;;5034204;28;20491;-61
2023/09/17 11:26:39;;;;;;;5.70;5.20;;;29.00;1.00;;;;;;5033910;28;20490;-61
2023/09/17 11:29:10;;;;;;;5.63;5.23;;;29.50;1.00;;;;;;5108843;27;20472;-61
2023/09/17 11:32:03;;;;;;;5.17;4.77;;;29.90;1.00;;;;;;5138971;27;20809;-61
2023/09/17 11:34:31;;;;;;;4.83;4.30;;;29.60;1.00;;;;;;5038499;27;20475;-61
2023/09/17 11:37:00;;;;;;;4.90;4.40;;;29.20;1.00;;;;;;5019759;28;20472;-60
2023/09/17 11:39:28;;;;;;;4.60;4.20;;;29.30;1.00;;;;;;5016743;27;20500;-61
2023/09/17 11:42:21;;;;;;;5.60;5.10;;;29.50;1.00;;;;;;5054337;27;20467;-62
2023/09/17 11:44:52;;;;;;;5.43;4.97;;;29.40;1.00;;;;;;5035351;28;20470;-61
2023/09/17 11:47:20;;;;;;;5.27;4.77;;;29.70;1.00;;;;;;5035038;28;20470;-59
2023/09/17 11:49:49;;;;;;;4.90;4.50;;;29.10;1.00;;;;;;5035307;28;20496;-60
2023/09/17 11:52:18;;;;;;;5.20;4.70;;;28.70;1.00;;;;;;5036583;28;20568;-60
2023/09/17 11:54:48;;;;;;;5.50;5.10;;;28.50;1.00;;;;;;5040315;27;20466;-60
2023/09/17 11:57:24;;;;;;;5.20;4.70;;;28.80;1.00;;;;;;5023922;28;20460;-61
2023/09/17 11:59:51;;;;;;;4.50;4.10;;;29.50;1.00;;;;;;5034162;28;20491;-61
2023/09/17 12:02:20;;;;;;;4.60;4.20;;;29.90;1.00;;;;;;5032701;28;20536;-61
2023/09/17 12:04:49;;;;;;;5.00;4.60;;;30.50;1.00;;;;;;5034071;28;20893;-61
2023/09/17 12:07:18;;;;;;;4.33;4.03;;;30.40;1.00;;;;;;5025394;28;20737;-60
2023/09/17 12:10:08;;;;;;;4.17;3.87;;;30.30;1.00;;;;;;5026514;28;20840;-60
2023/09/17 12:12:37;;;;;;;5.37;4.93;;;30.10;1.00;;;;;;5032568;28;20458;-61
2023/09/17 12:15:06;;;;;;;5.47;5.07;;;30.30;1.00;;;;;;5033436;28;20802;-60
2023/09/17 12:17:34;;;;;;;5.20;4.77;;;30.10;1.00;;;;;;5033178;28;20471;-60
2023/09/17 12:20:51;;;;;;;4.80;4.30;;;29.90;1.00;;;;;;5030754;28;20477;-60
2023/09/17 12:23:57;;;;;;;4.90;4.50;;;30.10;1.00;;;;;;5027084;28;20471;-60
2023/09/17 12:29:31;;;;;;;5.23;4.70;;;30.70;1.00;;;;;;5021753;28;20840;-59
2023/09/17 12:31:59;;;;;;;5.60;5.10;;;30.90;1.00;;;;;;5034152;28;20800;-60
2023/09/17 12:34:26;;;;;;;4.73;4.43;;;31.30;1.00;;;;;;5033275;28;20974;-60
2023/09/17 12:36:53;;;;;;;4.80;4.43;;;31.50;1.00;;;;;;5033473;28;20501;-60
2023/09/17 12:39:23;;;;;;;6.03;4.87;;;31.50;1.00;;;;;;5034552;28;20465;-60
2023/09/17 12:41:50;;;;;;;5.30;4.90;;;31.50;1.00;;;;;;5033535;28;20469;-58
2023/09/17 12:44:20;;;;;;;5.00;4.60;;;31.10;1.00;;;;;;5032406;28;20492;-61
2023/09/17 12:46:48;;;;;;;5.87;5.37;;;31.10;1.00;;;;;;5032155;28;20916;-60
2023/09/17 12:49:15;;;;;;;4.37;4.07;;;31.00;1.00;;;;;;5033262;28;20459;-60
2023/09/17 12:51:43;;;;;;;5.47;4.97;;;30.40;1.00;;;;;;5033503;28;20522;-59
2023/09/17 12:54:11;;;;;;;5.77;4.67;;;30.10;99.90;;;;;;5034109;28;20459;-59
2023/09/17 12:56:42;;;;;;;4.90;4.50;;;30.00;99.90;;;;;;5033638;28;20489;-60